Time;durP1;ratioP1;P1;durP2;ratioP2;P2;SDS_P1;SDS_P2;PMS_P1;PMS_P2;Temp;Humidity;BMP_temperature;BMP_pressure;BME280_temperature;BME280_humidity;BME280_pressure;Samples;Min_cycle;Max_cycle;Signal;HPM_P1;HPM_P2
2022/05/02 04:01:09;;;;;;;3.25;3.15;;;8.70;99.90;;;;;;5595023;23;20331;-69
2022/05/02 04:03:36;;;;;;;3.17;3.08;;;8.70;99.90;;;;;;4955942;28;20589;-69
2022/05/02 04:06:03;;;;;;;5.47;3.70;;;8.60;99.90;;;;;;4954358;28;20705;-69
2022/05/02 04:08:30;;;;;;;4.40;4.00;;;8.60;99.90;;;;;;4950594;28;20213;-68
2022/05/02 04:10:56;;;;;;;4.28;4.07;;;8.60;99.90;;;;;;4954746;28;20286;-69
2022/05/02 04:13:23;;;;;;;4.30;4.00;;;8.60;99.90;;;;;;4955563;28;20221;-69
2022/05/02 04:15:50;;;;;;;4.85;3.38;;;8.60;99.90;;;;;;4978663;23;20229;-71
2022/05/02 04:18:18;;;;;;;4.80;4.25;;;8.60;99.90;;;;;;4955389;28;20657;-73
2022/05/02 04:20:45;;;;;;;4.10;3.83;;;8.60;99.90;;;;;;4954829;28;20276;-73
2022/05/02 04:23:11;;;;;;;5.22;4.75;;;8.60;99.90;;;;;;4955669;28;20236;-71
2022/05/02 04:25:38;;;;;;;4.90;4.25;;;8.60;99.90;;;;;;4955105;28;20233;-73
2022/05/02 04:28:07;;;;;;;4.18;3.83;;;8.60;99.90;;;;;;4956594;29;20209;-71
2022/05/02 04:30:33;;;;;;;4.15;3.85;;;8.60;99.90;;;;;;4956764;28;20316;-71
2022/05/02 04:33:01;;;;;;;5.25;4.75;;;8.70;99.90;;;;;;4957498;28;20271;-71
2022/05/02 04:35:29;;;;;;;6.97;4.25;;;8.70;99.90;;;;;;4956320;28;20257;-71
2022/05/02 04:37:57;;;;;;;4.38;4.03;;;8.70;99.90;;;;;;4957539;28;20217;-72
2022/05/02 04:40:23;;;;;;;3.70;3.60;;;8.70;99.90;;;;;;4957093;28;20730;-71
2022/05/02 04:42:50;;;;;;;3.67;3.42;;;8.70;99.90;;;;;;4957526;28;20280;-72
2022/05/02 04:45:17;;;;;;;4.47;4.28;;;8.70;99.90;;;;;;4956895;28;20245;-71
2022/05/02 04:47:43;;;;;;;4.20;3.90;;;8.80;99.90;;;;;;4956016;28;20209;-71
2022/05/02 04:50:10;;;;;;;4.53;3.95;;;8.90;99.90;;;;;;4955098;28;20633;-72
2022/05/02 04:52:38;;;;;;;3.75;3.65;;;8.90;99.90;;;;;;4955160;28;20209;-72
2022/05/02 04:55:06;;;;;;;3.60;3.40;;;9.00;99.90;;;;;;4954743;28;20276;-72
2022/05/02 04:57:32;;;;;;;4.75;4.40;;;9.00;99.90;;;;;;4954534;28;20256;-71
2022/05/02 04:59:59;;;;;;;4.05;3.85;;;9.10;99.90;;;;;;4954417;29;20240;-71
2022/05/02 05:02:26;;;;;;;5.38;4.53;;;9.10;99.90;;;;;;4954328;29;20276;-72
2022/05/02 05:04:52;;;;;;;3.60;3.40;;;9.20;99.90;;;;;;4953920;28;20265;-72
2022/05/02 05:07:19;;;;;;;6.38;3.35;;;9.30;99.90;;;;;;4954620;28;20260;-71
2022/05/02 05:09:47;;;;;;;7.57;4.38;;;9.30;99.90;;;;;;4954379;29;20217;-71
2022/05/02 05:12:28;;;;;;;3.70;3.40;;;9.40;99.90;;;;;;4954328;28;20209;-70
2022/05/02 05:18:01;;;;;;;3.08;2.95;;;9.50;99.90;;;;;;4954530;29;20340;-71
2022/05/02 05:20:40;;;;;;;3.72;3.53;;;9.60;99.90;;;;;;4954094;29;20213;-72
2022/05/02 05:23:28;;;;;;;3.35;3.05;;;9.70;99.90;;;;;;4954451;29;20212;-73
2022/05/02 05:26:04;;;;;;;3.78;3.47;;;9.80;99.90;;;;;;4954327;28;20343;-73
2022/05/02 05:28:57;;;;;;;3.10;3.00;;;10.00;99.90;;;;;;4954992;28;20259;-73
2022/05/02 05:31:32;;;;;;;4.78;2.90;;;10.00;99.90;;;;;;4954046;28;20213;-72
2022/05/02 05:34:07;;;;;;;2.88;2.75;;;10.20;99.90;;;;;;4955018;29;20208;-73
2022/05/02 05:36:56;;;;;;;2.97;2.88;;;10.20;99.90;;;;;;4954656;28;20229;-73
2022/05/02 05:39:36;;;;;;;3.25;3.05;;;10.20;99.90;;;;;;4954920;29;20248;-74
2022/05/02 05:42:12;;;;;;;3.63;3.53;;;10.20;99.90;;;;;;4955167;28;20264;-75
2022/05/02 05:44:54;;;;;;;3.10;2.90;;;10.20;99.90;;;;;;4954581;29;20269;-75
2022/05/02 05:47:33;;;;;;;3.13;2.92;;;10.30;99.90;;;;;;4951173;29;20251;-73
2022/05/02 05:50:09;;;;;;;2.85;2.75;;;10.40;99.90;;;;;;4955292;29;20680;-74
2022/05/02 05:52:46;;;;;;;2.88;2.80;;;10.60;99.90;;;;;;4954282;28;20313;-74
2022/05/02 05:55:18;;;;;;;2.65;2.53;;;10.70;99.90;;;;;;4954084;28;20225;-74
2022/05/02 05:57:50;;;;;;;6.45;3.67;;;10.80;99.90;;;;;;4953973;28;20221;-74
2022/05/02 06:00:18;;;;;;;2.55;2.45;;;10.80;99.90;;;;;;4953267;28;20268;-74
2022/05/02 06:03:02;;;;;;;2.72;2.63;;;10.90;99.90;;;;;;4953704;28;20681;-75
2022/05/02 06:05:30;;;;;;;2.90;2.70;;;11.00;99.90;;;;;;4952941;28;20233;-74
2022/05/02 06:07:57;;;;;;;2.80;2.70;;;11.20;99.90;;;;;;4953861;28;20472;-74
2022/05/02 06:10:25;;;;;;;3.20;3.00;;;11.50;99.90;;;;;;4953185;28;20468;-74
2022/05/02 06:12:55;;;;;;;3.33;3.23;;;11.80;99.90;;;;;;4953309;28;20519;-74
2022/05/02 06:18:28;;;;;;;2.93;2.83;;;13.30;99.90;;;;;;4953445;29;20464;-74
2022/05/02 06:20:58;;;;;;;4.87;3.30;;;13.90;99.90;;;;;;4952093;28;20473;-74
2022/05/02 06:23:26;;;;;;;2.77;2.70;;;14.30;99.90;;;;;;4953437;28;20575;-74
2022/05/02 06:25:55;;;;;;;3.60;3.40;;;14.00;99.90;;;;;;4953189;28;20535;-75
2022/05/02 06:28:27;;;;;;;3.00;2.80;;;13.80;99.90;;;;;;4953646;28;20968;-74
2022/05/02 06:30:58;;;;;;;2.40;2.30;;;13.70;99.90;;;;;;4952630;28;20478;-74
2022/05/02 06:33:25;;;;;;;2.53;2.33;;;13.80;99.90;;;;;;4953466;28;20888;-75
2022/05/02 06:36:04;;;;;;;2.50;2.30;;;13.90;99.90;;;;;;4951993;28;20543;-75
2022/05/02 06:38:44;;;;;;;2.63;2.53;;;14.00;99.90;;;;;;4953311;29;20468;-75
2022/05/02 06:41:20;;;;;;;2.43;2.33;;;13.80;99.90;;;;;;4952533;29;20831;-74
2022/05/02 06:43:58;;;;;;;2.20;2.10;;;13.80;99.90;;;;;;4953123;29;20472;-75
2022/05/02 06:46:33;;;;;;;2.07;2.07;;;13.80;99.90;;;;;;4952667;28;20916;-75
2022/05/02 06:49:04;;;;;;;2.10;2.10;;;13.90;99.90;;;;;;4952752;28;20528;-75
2022/05/02 06:51:35;;;;;;;1.80;1.70;;;14.10;99.90;;;;;;4952016;29;20556;-75
2022/05/02 06:54:26;;;;;;;2.90;2.70;;;14.40;99.90;;;;;;4953199;29;20824;-75
2022/05/02 06:56:58;;;;;;;2.40;2.20;;;14.60;99.90;;;;;;4952680;28;20485;-75
2022/05/02 06:59:39;;;;;;;2.43;2.43;;;14.80;99.90;;;;;;4952948;28;20519;-75
2022/05/02 07:02:20;;;;;;;1.80;1.80;;;15.00;99.90;;;;;;4953016;29;20571;-74
2022/05/02 07:04:51;;;;;;;2.50;2.50;;;15.30;99.90;;;;;;4951735;28;20468;-75
2022/05/02 07:07:51;;;;;;;2.20;2.13;;;15.20;99.90;;;;;;4952742;29;20608;-75
2022/05/02 07:10:22;;;;;;;3.00;2.40;;;15.20;99.90;;;;;;4949283;29;20468;-75
2022/05/02 07:12:58;;;;;;;2.60;2.40;;;15.60;99.90;;;;;;4953053;28;20883;-76
2022/05/02 07:15:37;;;;;;;2.57;2.43;;;16.30;99.90;;;;;;4952812;28;20546;-75
2022/05/02 07:18:10;;;;;;;2.77;2.67;;;16.60;99.20;;;;;;4953251;28;20460;-75
2022/05/02 07:20:50;;;;;;;2.17;2.10;;;16.30;98.90;;;;;;4951431;28;20464;-74
2022/05/02 07:23:37;;;;;;;2.20;2.20;;;16.30;98.60;;;;;;4953308;28;20467;-73
2022/05/02 07:26:08;;;;;;;2.17;2.17;;;16.50;99.40;;;;;;4953263;28;20965;-73
2022/05/02 07:28:39;;;;;;;2.63;2.53;;;16.50;98.80;;;;;;4959451;28;20465;-72
2022/05/02 07:31:08;;;;;;;2.77;2.67;;;16.40;98.40;;;;;;4952675;28;20870;-74
2022/05/02 07:33:36;;;;;;;2.27;2.27;;;16.20;99.00;;;;;;4952844;28;20508;-73
2022/05/02 07:36:04;;;;;;;2.27;2.17;;;16.20;98.00;;;;;;4953316;28;20555;-74
2022/05/02 07:38:33;;;;;;;2.50;2.40;;;16.00;98.70;;;;;;4956439;28;20524;-73
2022/05/02 07:43:49;;;;;;;4.07;2.70;;;16.10;99.10;;;;;;4956220;29;20821;-74
2022/05/02 07:46:20;;;;;;;4.57;2.97;;;16.20;99.30;;;;;;4956021;28;20490;-74
2022/05/02 07:48:49;;;;;;;2.40;2.30;;;16.30;98.90;;;;;;4956033;28;20473;-72
2022/05/02 07:51:16;;;;;;;2.60;2.50;;;16.40;98.40;;;;;;4955114;28;20468;-74
2022/05/02 07:53:44;;;;;;;2.70;2.60;;;16.50;98.50;;;;;;4956140;28;20473;-73
2022/05/02 07:56:13;;;;;;;3.17;2.80;;;16.60;98.40;;;;;;4955396;28;20567;-73
2022/05/02 07:58:41;;;;;;;2.60;2.50;;;16.50;98.10;;;;;;4952635;28;20492;-74
2022/05/02 08:01:09;;;;;;;2.70;2.60;;;16.60;98.50;;;;;;4954830;28;20465;-74
2022/05/02 08:03:37;;;;;;;2.67;2.60;;;16.60;98.60;;;;;;4955665;28;20486;-74
2022/05/02 08:06:15;;;;;;;2.77;2.57;;;16.70;98.40;;;;;;4954754;28;20901;-73
2022/05/02 08:08:52;;;;;;;2.93;2.70;;;16.70;98.20;;;;;;4955629;28;20503;-74
2022/05/02 08:11:27;;;;;;;3.30;3.10;;;16.90;98.60;;;;;;4955579;28;20464;-73
2022/05/02 08:14:03;;;;;;;3.47;3.20;;;16.90;98.00;;;;;;4955369;28;20925;-74
2022/05/02 08:16:35;;;;;;;2.80;2.70;;;17.10;98.50;;;;;;4955421;28;20953;-73
2022/05/02 08:19:14;;;;;;;3.27;3.07;;;17.10;98.40;;;;;;4954904;28;20945;-72
2022/05/02 08:21:44;;;;;;;3.20;3.00;;;17.20;98.20;;;;;;4954456;28;20519;-73
2022/05/02 08:27:47;;;;;;;3.13;2.93;;;17.30;98.00;;;;;;4938983;28;20908;-72
2022/05/02 08:30:20;;;;;;;2.87;2.77;;;17.30;98.10;;;;;;4962876;28;20464;-72
2022/05/02 08:32:59;;;;;;;3.63;3.20;;;17.40;98.20;;;;;;4962540;28;20552;-72
2022/05/02 08:35:42;;;;;;;3.40;3.30;;;17.40;97.90;;;;;;4959529;28;20492;-71
2022/05/02 08:38:22;;;;;;;3.17;3.07;;;17.30;98.30;;;;;;4962077;29;20872;-72
2022/05/02 08:41:33;;;;;;;3.20;3.00;;;17.20;98.60;;;;;;4962232;29;20472;-75
2022/05/02 08:44:43;;;;;;;2.83;2.73;;;17.20;98.90;;;;;;4962282;29;20515;-71
2022/05/02 08:47:52;;;;;;;3.90;3.70;;;17.00;98.80;;;;;;4960548;28;20954;-72
2022/05/02 08:50:24;;;;;;;2.90;2.80;;;17.00;99.10;;;;;;4912909;28;20476;-71
2022/05/02 08:53:15;;;;;;;3.60;3.50;;;17.10;98.40;;;;;;4961870;29;20556;-72
2022/05/02 08:55:57;;;;;;;4.20;3.23;;;17.00;98.40;;;;;;4960294;28;20480;-71
2022/05/02 08:58:48;;;;;;;3.60;3.50;;;17.00;98.40;;;;;;4961105;29;20460;-71
2022/05/02 09:01:49;;;;;;;3.90;3.60;;;16.90;97.70;;;;;;4958448;29;20827;-72
2022/05/02 09:04:51;;;;;;;3.90;3.60;;;17.00;98.40;;;;;;4954158;28;20996;-72
2022/05/02 09:07:57;;;;;;;3.57;3.27;;;16.90;98.60;;;;;;4960291;28;20516;-72
2022/05/02 09:10:44;;;;;;;3.63;3.43;;;17.20;98.00;;;;;;4960168;29;20464;-72
2022/05/02 09:13:45;;;;;;;4.43;3.63;;;17.20;98.10;;;;;;4961396;29;20942;-73
2022/05/02 09:16:39;;;;;;;3.50;3.40;;;17.40;97.60;;;;;;4937079;28;20483;-72
2022/05/02 09:19:55;;;;;;;4.60;3.23;;;17.40;97.10;;;;;;4963106;28;20515;-72
2022/05/02 09:23:05;;;;;;;3.60;3.40;;;17.40;96.80;;;;;;4962864;29;20496;-72
2022/05/02 09:25:49;;;;;;;3.40;3.20;;;17.30;97.00;;;;;;4954585;29;20493;-73
2022/05/02 09:28:21;;;;;;;3.87;3.67;;;17.20;97.10;;;;;;4959340;28;21028;-73
2022/05/02 09:31:17;;;;;;;3.50;3.30;;;17.10;96.70;;;;;;4959535;28;20492;-73
2022/05/02 09:34:06;;;;;;;4.27;3.90;;;17.10;95.40;;;;;;4959655;29;20909;-73
2022/05/02 09:36:43;;;;;;;5.17;4.77;;;17.10;95.10;;;;;;4958691;28;20488;-73
2022/05/02 09:39:14;;;;;;;4.23;3.93;;;17.10;94.10;;;;;;4959717;29;20472;-72
2022/05/02 09:42:16;;;;;;;4.20;3.80;;;17.10;94.10;;;;;;4959002;28;20519;-73
2022/05/02 09:51:32;;;;;;;3.90;3.73;;;17.30;95.00;;;;;;4954488;29;20464;-72
2022/05/02 09:54:05;;;;;;;3.43;3.33;;;17.30;95.10;;;;;;4958507;29;20483;-72
2022/05/02 09:56:41;;;;;;;3.73;3.57;;;17.30;94.80;;;;;;4958185;28;20480;-71
2022/05/02 09:59:11;;;;;;;3.60;3.50;;;17.30;95.20;;;;;;4954949;28;20488;-72
2022/05/02 10:01:46;;;;;;;4.47;3.93;;;17.30;94.60;;;;;;4956002;28;20516;-71
2022/05/02 10:04:32;;;;;;;3.87;3.67;;;17.50;94.90;;;;;;4958575;28;20820;-71
2022/05/02 10:07:07;;;;;;;3.60;3.40;;;17.50;95.10;;;;;;4958690;28;20528;-72
2022/05/02 10:10:01;;;;;;;3.80;3.50;;;17.50;95.40;;;;;;4958061;28;20662;-72
2022/05/02 10:12:40;;;;;;;3.53;3.43;;;17.50;94.20;;;;;;4959174;28;20492;-71
2022/05/02 10:18:07;;;;;;;4.40;4.13;;;17.60;94.60;;;;;;4932618;29;21061;-69
2022/05/02 10:20:46;;;;;;;3.80;3.60;;;17.80;94.00;;;;;;4932462;29;20469;-70
2022/05/02 10:23:36;;;;;;;3.90;3.67;;;17.90;94.50;;;;;;4933869;29;20469;-68
2022/05/02 10:26:10;;;;;;;4.20;4.00;;;18.10;94.30;;;;;;4933658;29;20540;-69
2022/05/02 10:28:52;;;;;;;4.13;3.83;;;18.00;94.10;;;;;;4933935;29;20480;-72
2022/05/02 10:31:20;;;;;;;3.53;3.33;;;18.10;94.10;;;;;;4933019;29;20545;-69
2022/05/02 10:33:51;;;;;;;8.47;4.10;;;17.80;93.30;;;;;;4933863;29;20465;-69
2022/05/02 10:36:20;;;;;;;4.27;3.97;;;17.60;94.30;;;;;;4941288;29;20563;-69
2022/05/02 10:38:52;;;;;;;4.10;3.90;;;17.70;94.60;;;;;;4941311;28;20577;-69
2022/05/02 10:41:28;;;;;;;4.30;4.10;;;17.80;94.60;;;;;;4933322;29;20473;-69
2022/05/02 10:44:01;;;;;;;5.13;4.73;;;18.00;94.20;;;;;;4933337;29;20465;-69
2022/05/02 10:46:31;;;;;;;4.97;4.40;;;18.10;94.00;;;;;;4933803;29;20896;-69
2022/05/02 10:49:04;;;;;;;4.77;4.37;;;18.30;93.80;;;;;;4933515;29;20504;-69
2022/05/02 10:51:41;;;;;;;4.47;4.07;;;18.40;93.70;;;;;;4932882;29;20465;-68
2022/05/02 10:54:10;;;;;;;4.70;4.40;;;18.60;93.60;;;;;;4933537;29;20481;-69
2022/05/02 10:56:43;;;;;;;4.70;4.33;;;18.70;93.00;;;;;;4933679;29;20879;-69
2022/05/02 10:59:13;;;;;;;4.50;4.30;;;18.60;92.90;;;;;;4934071;29;20548;-69
2022/05/02 11:02:18;;;;;;;5.40;4.87;;;18.60;92.40;;;;;;4933299;29;20568;-69
2022/05/02 11:05:05;;;;;;;4.40;4.10;;;18.50;92.50;;;;;;4932906;29;20516;-69
2022/05/02 11:07:40;;;;;;;3.80;3.70;;;18.60;93.00;;;;;;4934309;29;20529;-70
2022/05/02 11:10:09;;;;;;;4.87;4.67;;;18.50;93.00;;;;;;4934081;29;20469;-69
2022/05/02 11:12:40;;;;;;;5.20;4.80;;;18.40;92.60;;;;;;4937847;29;20572;-72
2022/05/02 11:15:09;;;;;;;4.30;4.10;;;18.40;93.00;;;;;;4938441;29;20469;-69
2022/05/02 11:17:51;;;;;;;5.03;4.70;;;18.30;93.20;;;;;;4939065;29;20500;-69
2022/05/02 11:23:39;;;;;;;4.47;4.20;;;18.50;92.70;;;;;;4938427;29;20589;-69
2022/05/02 11:26:14;;;;;;;4.53;4.23;;;18.60;92.40;;;;;;4923199;29;20984;-69
2022/05/02 11:28:53;;;;;;;6.13;3.80;;;18.70;91.80;;;;;;4956406;28;20507;-70
2022/05/02 11:31:25;;;;;;;4.37;4.00;;;18.60;92.00;;;;;;4955824;28;20617;-69
2022/05/02 11:34:00;;;;;;;5.10;4.80;;;18.70;92.30;;;;;;4955864;28;20460;-70
2022/05/02 11:36:33;;;;;;;4.50;4.30;;;18.60;91.90;;;;;;4955829;29;20569;-69
2022/05/02 11:39:03;;;;;;;5.17;4.20;;;18.70;91.70;;;;;;4956082;28;20465;-71
2022/05/02 11:41:31;;;;;;;4.33;4.03;;;18.70;91.50;;;;;;4955419;28;20948;-69
2022/05/02 11:44:11;;;;;;;5.07;4.60;;;18.80;91.90;;;;;;4956048;28;20509;-71
2022/05/02 11:46:57;;;;;;;5.30;4.93;;;18.90;91.80;;;;;;4955583;29;20488;-69
2022/05/02 11:49:38;;;;;;;5.07;4.77;;;18.90;91.20;;;;;;4954604;28;20468;-69
2022/05/02 11:52:11;;;;;;;4.70;4.37;;;18.70;91.00;;;;;;4955932;28;20996;-69
2022/05/02 11:54:39;;;;;;;4.43;4.13;;;18.70;91.90;;;;;;4955804;29;20465;-69
2022/05/02 11:57:22;;;;;;;4.30;4.10;;;18.90;91.80;;;;;;4951641;28;20782;-69
2022/05/02 11:59:55;;;;;;;3.77;3.67;;;18.70;90.80;;;;;;4928980;29;20462;-69
2022/05/02 12:02:38;;;;;;;3.80;3.60;;;18.50;91.10;;;;;;4936574;29;20470;-69
2022/05/02 12:05:12;;;;;;;4.20;4.00;;;18.60;92.00;;;;;;4935338;29;20469;-70
2022/05/02 12:07:43;;;;;;;4.23;3.90;;;18.60;91.80;;;;;;4936522;29;20487;-69
2022/05/02 12:10:12;;;;;;;4.50;4.20;;;18.70;91.70;;;;;;4935754;29;20557;-68
2022/05/02 12:12:49;;;;;;;4.60;4.30;;;18.80;91.50;;;;;;4936114;29;20465;-69
2022/05/02 12:15:16;;;;;;;5.60;5.17;;;18.90;91.20;;;;;;4935989;29;20473;-70
2022/05/02 12:17:52;;;;;;;4.83;4.50;;;18.90;90.90;;;;;;4936325;29;20520;-69
2022/05/02 12:20:27;;;;;;;6.83;5.10;;;18.90;91.20;;;;;;4934658;29;20461;-69
2022/05/02 12:22:59;;;;;;;4.90;4.70;;;18.80;90.90;;;;;;4934926;29;20950;-69
2022/05/02 12:25:28;;;;;;;4.83;4.40;;;18.60;91.30;;;;;;4936060;29;20503;-69
2022/05/02 12:27:55;;;;;;;4.67;4.27;;;18.40;91.10;;;;;;4936048;29;20465;-68
2022/05/02 12:30:22;;;;;;;4.60;4.20;;;18.40;91.90;;;;;;4935362;29;20469;-69
2022/05/02 12:32:51;;;;;;;4.87;4.40;;;18.40;91.30;;;;;;4936205;29;20789;-68
2022/05/02 12:35:21;;;;;;;5.10;4.90;;;18.20;91.40;;;;;;4935422;29;20870;-70
2022/05/02 12:37:51;;;;;;;4.30;4.10;;;18.10;91.60;;;;;;4954831;28;20487;-69
2022/05/02 12:40:25;;;;;;;5.50;5.20;;;18.00;91.40;;;;;;4954718;28;20465;-69
2022/05/02 12:42:56;;;;;;;4.43;4.13;;;17.90;92.10;;;;;;4954928;28;20472;-70
2022/05/02 12:45:24;;;;;;;5.80;4.30;;;17.90;91.90;;;;;;4954915;28;20500;-69
2022/05/02 12:47:54;;;;;;;4.77;4.47;;;17.90;92.00;;;;;;4955165;28;20461;-69
2022/05/02 12:50:22;;;;;;;4.97;4.67;;;18.00;92.60;;;;;;4953662;28;20505;-70
2022/05/02 12:52:51;;;;;;;4.50;4.20;;;17.80;91.60;;;;;;4954655;28;20468;-69
2022/05/02 12:55:22;;;;;;;4.50;4.30;;;17.80;92.20;;;;;;4954196;28;20547;-70
2022/05/02 13:00:40;;;;;;;5.23;4.83;;;17.90;92.30;;;;;;4953736;29;20453;-69
2022/05/02 13:03:18;;;;;;;4.17;3.87;;;18.10;92.10;;;;;;4954887;28;20831;-71
2022/05/02 13:05:57;;;;;;;4.77;4.37;;;18.20;91.70;;;;;;4953502;28;20488;-69
2022/05/02 13:08:33;;;;;;;5.30;5.00;;;18.30;91.50;;;;;;4954623;28;20597;-69
2022/05/02 13:11:09;;;;;;;5.13;4.70;;;18.40;90.90;;;;;;4953691;28;20531;-68
2022/05/02 13:13:45;;;;;;;5.30;5.00;;;18.50;91.50;;;;;;4953942;28;20531;-70
2022/05/02 13:16:25;;;;;;;4.33;4.13;;;18.50;90.70;;;;;;4953682;28;20547;-70
2022/05/02 13:18:51;;;;;;;4.37;4.07;;;18.70;90.70;;;;;;4954032;28;20502;-70
2022/05/02 13:21:19;;;;;;;5.20;4.90;;;18.90;90.70;;;;;;4953175;28;20472;-70
2022/05/02 13:23:48;;;;;;;5.10;4.80;;;19.00;90.20;;;;;;4954228;28;20480;-68
2022/05/02 13:26:50;;;;;;;5.03;4.67;;;19.10;90.30;;;;;;4942252;28;20489;-69
2022/05/02 13:29:28;;;;;;;5.07;4.67;;;19.30;89.00;;;;;;4934926;29;20461;-69
2022/05/02 13:31:59;;;;;;;5.77;5.27;;;19.50;89.30;;;;;;4934363;29;20465;-69
2022/05/02 13:34:55;;;;;;;5.37;5.07;;;19.60;89.50;;;;;;4933821;29;20469;-69
2022/05/02 13:37:32;;;;;;;7.40;6.90;;;19.60;89.80;;;;;;4934841;29;20556;-69
2022/05/02 13:40:07;;;;;;;6.30;5.70;;;19.50;88.60;;;;;;4934132;29;20468;-69
2022/05/02 13:42:50;;;;;;;6.03;5.37;;;19.50;89.50;;;;;;4934886;29;20490;-69
2022/05/02 13:45:29;;;;;;;5.93;5.43;;;19.50;89.10;;;;;;4934300;29;20517;-69
2022/05/02 13:48:02;;;;;;;5.93;5.43;;;19.50;88.60;;;;;;4934853;29;20838;-69
2022/05/02 13:50:31;;;;;;;6.73;6.07;;;19.60;87.70;;;;;;4933431;29;20470;-69
2022/05/02 13:53:03;;;;;;;6.43;5.73;;;19.40;87.70;;;;;;4934888;29;20470;-69
2022/05/02 13:55:45;;;;;;;5.60;5.20;;;19.20;88.00;;;;;;4934024;29;21002;-70
2022/05/02 13:58:41;;;;;;;6.07;5.60;;;19.10;87.80;;;;;;4939375;29;20489;-70
2022/05/02 14:01:32;;;;;;;5.70;5.40;;;19.00;87.70;;;;;;4940044;29;20473;-69
2022/05/02 14:04:02;;;;;;;6.60;6.10;;;18.90;88.30;;;;;;4952745;28;20541;-70
2022/05/02 14:06:39;;;;;;;6.50;5.93;;;19.00;87.80;;;;;;4953090;28;20583;-70
2022/05/02 14:09:06;;;;;;;6.13;5.53;;;19.10;88.20;;;;;;4953338;28;20491;-69
2022/05/02 14:11:33;;;;;;;6.70;5.27;;;18.90;87.80;;;;;;4953232;28;20465;-69
2022/05/02 14:14:09;;;;;;;7.57;6.87;;;18.80;89.00;;;;;;4953280;28;20535;-69
2022/05/02 14:16:38;;;;;;;6.43;5.93;;;18.90;89.90;;;;;;4953064;28;20499;-69
2022/05/02 14:19:08;;;;;;;5.57;5.27;;;18.80;88.00;;;;;;4952922;28;20555;-69
2022/05/02 14:21:44;;;;;;;7.23;5.77;;;18.90;89.50;;;;;;4952255;28;20464;-69
2022/05/02 14:24:10;;;;;;;5.60;5.20;;;19.00;87.70;;;;;;4953027;28;20568;-69
2022/05/02 14:26:37;;;;;;;6.80;6.20;;;19.20;88.30;;;;;;4953076;28;20488;-69
2022/05/02 14:29:11;;;;;;;8.97;6.33;;;19.10;88.00;;;;;;4952699;28;20464;-69
2022/05/02 14:31:39;;;;;;;6.53;6.00;;;19.20;88.30;;;;;;4952389;29;20640;-69
2022/05/02 14:34:07;;;;;;;6.67;6.13;;;19.20;87.60;;;;;;4952773;28;20519;-69
2022/05/02 14:36:35;;;;;;;6.27;5.73;;;19.40;88.30;;;;;;4951680;29;22150;-68
2022/05/02 14:39:03;;;;;;;8.57;7.73;;;19.40;87.90;;;;;;4938385;28;20489;-68
2022/05/02 14:41:29;;;;;;;7.73;6.93;;;19.50;87.20;;;;;;4932987;29;20542;-68
2022/05/02 14:43:58;;;;;;;7.23;6.60;;;19.50;86.60;;;;;;4933987;29;20649;-70
2022/05/02 14:46:28;;;;;;;7.00;6.40;;;19.50;86.60;;;;;;4933026;29;20493;-68
2022/05/02 14:48:56;;;;;;;6.40;5.33;;;19.30;86.70;;;;;;4933326;29;20650;-69
2022/05/02 14:51:28;;;;;;;7.47;6.80;;;19.30;86.90;;;;;;4932544;29;20476;-69
2022/05/02 14:53:57;;;;;;;6.60;6.00;;;19.30;86.50;;;;;;4933413;29;20476;-69
2022/05/02 14:56:29;;;;;;;6.47;6.07;;;19.20;86.40;;;;;;4933471;29;20852;-69
2022/05/02 14:58:59;;;;;;;6.57;6.07;;;19.10;86.20;;;;;;4933542;29;20489;-69
2022/05/02 15:01:29;;;;;;;6.83;6.33;;;19.10;86.70;;;;;;4932573;29;20466;-69
2022/05/02 15:03:59;;;;;;;6.90;6.40;;;19.10;87.30;;;;;;4932836;29;20569;-69
2022/05/02 15:06:30;;;;;;;7.33;6.70;;;19.20;87.60;;;;;;4932955;29;20537;-69
2022/05/02 15:09:14;;;;;;;7.00;6.40;;;19.20;87.30;;;;;;4933542;29;20462;-69
2022/05/02 15:11:54;;;;;;;7.33;6.73;;;19.20;87.70;;;;;;4933114;29;20477;-68
2022/05/02 15:14:41;;;;;;;8.03;7.27;;;19.20;87.70;;;;;;4933370;29;20568;-69
2022/05/02 15:17:22;;;;;;;7.70;6.90;;;19.10;87.00;;;;;;4933550;29;20902;-68
2022/05/02 15:20:21;;;;;;;7.50;7.00;;;19.00;87.20;;;;;;4931847;29;20493;-68
2022/05/02 15:22:52;;;;;;;11.20;6.60;;;19.10;87.10;;;;;;4898890;29;20477;-68
2022/05/02 15:25:20;;;;;;;6.70;6.20;;;18.90;87.70;;;;;;4927080;29;20960;-69
2022/05/02 15:36:44;;;;;;;6.20;5.80;;;18.70;89.10;;;;;;4932430;29;20476;-69
2022/05/02 15:39:26;;;;;;;7.63;6.83;;;18.60;88.80;;;;;;4932980;29;20600;-69
2022/05/02 15:41:59;;;;;;;7.87;7.17;;;18.50;89.00;;;;;;4932744;29;20477;-69
2022/05/02 15:44:35;;;;;;;7.00;6.40;;;18.40;88.80;;;;;;4933171;29;20469;-69
2022/05/02 15:47:05;;;;;;;6.77;6.20;;;18.40;89.70;;;;;;4933333;29;20540;-70
2022/05/02 15:49:34;;;;;;;6.53;5.90;;;18.30;90.00;;;;;;4931931;29;20462;-70
2022/05/02 15:52:04;;;;;;;6.10;5.70;;;18.30;90.10;;;;;;4932925;29;21055;-68
2022/05/02 15:54:35;;;;;;;6.00;5.50;;;18.20;90.10;;;;;;4932834;29;20496;-68
2022/05/02 15:57:37;;;;;;;6.70;6.10;;;18.20;90.20;;;;;;4932046;29;20858;-68
2022/05/02 16:00:23;;;;;;;6.20;5.60;;;18.20;90.30;;;;;;4931067;29;20856;-70
2022/05/02 16:03:15;;;;;;;6.27;5.87;;;18.10;90.30;;;;;;4936245;29;20472;-69
2022/05/02 16:06:06;;;;;;;6.27;5.80;;;18.10;90.50;;;;;;4935397;29;20490;-69
2022/05/02 16:11:18;;;;;;;7.30;6.80;;;18.10;90.90;;;;;;4935696;29;20914;-69
2022/05/02 16:13:47;;;;;;;6.97;6.47;;;18.00;90.40;;;;;;4936211;29;20961;-69
2022/05/02 16:16:16;;;;;;;6.33;5.93;;;17.90;90.50;;;;;;4936369;29;20497;-69
2022/05/02 16:18:45;;;;;;;8.20;6.40;;;17.90;90.80;;;;;;4936251;29;20563;-70
2022/05/02 16:21:15;;;;;;;6.30;5.80;;;17.80;91.30;;;;;;4934585;29;20503;-70
2022/05/02 16:23:43;;;;;;;8.73;5.60;;;17.80;91.50;;;;;;4936226;29;20484;-68
2022/05/02 16:26:10;;;;;;;7.97;6.80;;;17.80;91.60;;;;;;4936442;29;20489;-69
2022/05/02 16:28:37;;;;;;;7.20;5.80;;;17.80;91.60;;;;;;4936264;29;20469;-69
2022/05/02 16:31:06;;;;;;;5.87;5.33;;;17.80;91.40;;;;;;4935376;29;20552;-69
2022/05/02 16:33:34;;;;;;;6.40;5.97;;;17.70;91.60;;;;;;4936043;29;20556;-69
2022/05/02 16:36:01;;;;;;;6.13;5.73;;;17.70;91.70;;;;;;4934826;29;20592;-69
2022/05/02 16:38:31;;;;;;;6.33;5.40;;;17.70;92.00;;;;;;4935735;29;20548;-69
2022/05/02 16:40:58;;;;;;;6.30;5.70;;;17.70;92.00;;;;;;4935318;29;20525;-68
2022/05/02 16:43:25;;;;;;;7.30;6.60;;;17.60;91.80;;;;;;4936031;29;20477;-68
2022/05/02 16:45:53;;;;;;;6.50;6.00;;;17.60;92.00;;;;;;4935904;29;20544;-68
2022/05/02 16:48:21;;;;;;;6.27;5.53;;;17.60;92.30;;;;;;4937350;29;20464;-68
2022/05/02 16:50:48;;;;;;;6.10;5.60;;;17.60;92.40;;;;;;4952968;28;20902;-68
2022/05/02 16:53:14;;;;;;;6.13;5.70;;;17.60;92.40;;;;;;4955039;28;20519;-68
2022/05/02 16:55:43;;;;;;;6.00;5.50;;;17.60;92.20;;;;;;4954312;28;21077;-68
2022/05/02 16:58:11;;;;;;;5.40;4.90;;;17.50;92.20;;;;;;4954416;28;20527;-68
2022/05/02 17:00:45;;;;;;;6.37;5.77;;;17.40;92.20;;;;;;4953848;28;20492;-70
2022/05/02 17:03:14;;;;;;;6.37;5.87;;;17.20;92.20;;;;;;4954038;29;20886;-70
2022/05/02 17:05:42;;;;;;;5.63;5.13;;;17.20;92.40;;;;;;4953634;28;20509;-68
2022/05/02 17:08:13;;;;;;;6.23;5.63;;;17.10;92.50;;;;;;4953899;28;20565;-68
2022/05/02 17:10:43;;;;;;;5.50;5.00;;;17.10;92.60;;;;;;4953296;28;20471;-68
2022/05/02 17:13:14;;;;;;;6.50;6.00;;;17.00;92.70;;;;;;4954823;28;20567;-69
2022/05/02 17:15:42;;;;;;;9.80;5.20;;;16.90;92.50;;;;;;4953936;28;20524;-68
2022/05/02 17:18:12;;;;;;;6.10;5.60;;;16.90;93.00;;;;;;4954364;28;20896;-69
2022/05/02 17:20:40;;;;;;;5.83;5.33;;;16.80;93.00;;;;;;4952779;28;20507;-68
2022/05/02 17:23:08;;;;;;;6.00;5.37;;;16.70;93.00;;;;;;4954710;28;20465;-69
2022/05/02 17:25:37;;;;;;;5.57;5.10;;;16.60;93.30;;;;;;4942943;28;20847;-69
2022/05/02 17:28:09;;;;;;;4.93;4.63;;;16.50;93.40;;;;;;4954284;28;20461;-69
2022/05/02 17:30:38;;;;;;;3.60;3.40;;;16.50;93.60;;;;;;4954142;28;20467;-69
2022/05/02 17:33:08;;;;;;;4.13;3.83;;;16.40;93.20;;;;;;4954646;28;20531;-69
2022/05/02 17:35:44;;;;;;;4.10;3.80;;;16.30;93.40;;;;;;4953488;28;20835;-69
2022/05/02 17:38:12;;;;;;;3.87;3.67;;;16.30;93.60;;;;;;4954726;28;20464;-69
2022/05/02 17:40:41;;;;;;;4.30;3.90;;;16.20;93.40;;;;;;4953568;29;20493;-69
2022/05/02 17:43:18;;;;;;;3.53;3.23;;;16.10;93.10;;;;;;4954643;28;20536;-68
2022/05/02 17:45:49;;;;;;;3.00;2.90;;;16.00;93.10;;;;;;4955794;28;20592;-69
2022/05/02 17:48:16;;;;;;;3.60;3.30;;;15.90;93.20;;;;;;4956716;28;20490;-69
2022/05/02 17:50:45;;;;;;;2.47;2.37;;;15.90;93.10;;;;;;4953079;28;20465;-69
2022/05/02 17:53:15;;;;;;;2.97;2.80;;;15.80;93.10;;;;;;4954731;28;20969;-69
2022/05/02 17:55:44;;;;;;;2.30;2.30;;;15.80;93.40;;;;;;4954767;28;20579;-69
2022/05/02 17:58:12;;;;;;;3.03;2.93;;;15.60;92.90;;;;;;4949398;28;20953;-69
2022/05/02 18:00:42;;;;;;;2.50;2.40;;;15.60;93.00;;;;;;4952651;28;20480;-68
2022/05/02 18:03:13;;;;;;;2.70;2.53;;;15.50;92.70;;;;;;4955333;28;20468;-69
2022/05/02 18:05:45;;;;;;;2.77;2.63;;;15.40;92.80;;;;;;4954721;28;20489;-69